Time;durP1;ratioP1;P1;durP2;ratioP2;P2;SDS_P1;SDS_P2;PMS_P1;PMS_P2;Temp;Humidity;BMP_temperature;BMP_pressure;BME280_temperature;BME280_humidity;BME280_pressure;Samples;Min_cycle;Max_cycle;Signal;HPM_P1;HPM_P2
2023/08/21 00:02:50;;;;;;;5.75;3.08;;;;;;;21.76;63.08;100484.19;10389118;28;20052;-64
2023/08/21 00:07:52;;;;;;;6.97;2.90;;;;;;;21.71;63.20;100475.78;10396087;28;20072;-64
2023/08/21 00:12:54;;;;;;;4.68;3.00;;;;;;;21.66;63.36;100478.06;10396379;28;20068;-64
2023/08/21 00:17:56;;;;;;;9.25;3.40;;;;;;;21.66;63.35;100476.22;10400512;28;20498;-64
2023/08/21 00:22:58;;;;;;;7.32;3.10;;;;;;;21.59;63.64;100471.66;10383868;28;20073;-64
2023/08/21 00:28:01;;;;;;;4.22;2.78;;;;;;;21.61;63.55;100480.31;10389356;28;20049;-63
2023/08/21 00:33:03;;;;;;;9.32;2.88;;;;;;;21.56;63.71;100477.25;10393494;28;20051;-64
2023/08/21 00:38:05;;;;;;;4.38;2.80;;;;;;;21.55;63.78;100471.13;10400144;28;20516;-64
2023/08/21 00:43:07;;;;;;;5.68;3.30;;;;;;;21.46;63.89;100472.00;10387917;28;20485;-64
2023/08/21 00:48:11;;;;;;;5.22;3.00;;;;;;;21.38;64.14;100465.72;10392476;28;20061;-64
2023/08/21 00:53:15;;;;;;;4.50;3.17;;;;;;;21.38;64.12;100477.22;10392949;28;20132;-64
2023/08/21 00:58:19;;;;;;;5.40;3.30;;;;;;;21.38;64.00;100463.06;10428413;28;20050;-65
2023/08/21 01:03:21;;;;;;;5.22;2.88;;;;;;;21.36;64.13;100470.38;10396580;28;20045;-62
2023/08/21 01:08:52;;;;;;;7.60;3.50;;;;;;;21.33;64.41;100471.53;10412352;28;20107;-62
2023/08/21 01:14:10;;;;;;;7.38;3.08;;;;;;;21.27;64.18;100487.19;10396604;28;20167;-62
2023/08/21 01:19:41;;;;;;;7.00;3.15;;;;;;;21.11;64.68;100484.31;10405377;28;20041;-62
2023/08/21 01:24:43;;;;;;;8.23;3.30;;;;;;;21.04;64.50;100486.72;10429050;28;20307;-62
2023/08/21 01:29:45;;;;;;;8.20;3.65;;;;;;;21.01;64.76;100497.63;10396094;28;20045;-62
2023/08/21 01:34:49;;;;;;;6.82;2.78;;;;;;;20.97;64.35;100494.44;10407303;28;20072;-62
2023/08/21 01:39:51;;;;;;;5.03;3.17;;;;;;;20.95;64.82;100500.88;10393241;28;20046;-62
2023/08/21 01:44:54;;;;;;;5.18;3.00;;;;;;;20.87;64.76;100496.28;10395761;28;20130;-62
2023/08/21 01:49:56;;;;;;;6.88;3.40;;;;;;;20.77;65.00;100500.78;10397913;28;20409;-62
2023/08/21 01:54:58;;;;;;;5.13;3.40;;;;;;;20.72;65.14;100503.00;10392978;28;20068;-62
2023/08/21 02:00:00;;;;;;;5.70;3.00;;;;;;;20.70;65.03;100501.50;10403621;28;20049;-62
2023/08/21 02:05:03;;;;;;;6.47;3.25;;;;;;;20.64;65.24;100500.22;10398684;28;20302;-62
2023/08/21 02:10:07;;;;;;;4.80;3.00;;;;;;;20.65;65.02;100496.59;10398274;28;20051;-62
2023/08/21 02:15:10;;;;;;;5.85;3.30;;;;;;;20.53;65.34;100492.38;10396832;28;20053;-62
2023/08/21 02:20:12;;;;;;;7.38;3.20;;;;;;;20.54;65.63;100502.03;10401096;28;20127;-62
2023/08/21 02:25:14;;;;;;;5.10;3.17;;;;;;;20.47;65.57;100495.63;10404923;28;20486;-62
2023/08/21 02:30:16;;;;;;;6.38;3.10;;;;;;;20.43;65.65;100504.84;10402615;28;20518;-62
2023/08/21 02:35:18;;;;;;;5.90;3.17;;;;;;;20.34;65.80;100505.66;10405672;28;20131;-64
2023/08/21 02:40:20;;;;;;;6.43;3.08;;;;;;;20.24;65.95;100499.53;10398973;28;20072;-64
2023/08/21 02:45:23;;;;;;;6.53;3.15;;;;;;;20.26;65.83;100510.84;10417866;28;20056;-64
2023/08/21 02:50:25;;;;;;;7.35;3.67;;;;;;;20.21;66.06;100508.59;10404362;28;20053;-64
2023/08/21 02:55:27;;;;;;;4.68;3.20;;;;;;;20.10;66.15;100502.59;10403414;28;20729;-64
2023/08/21 03:00:29;;;;;;;5.22;3.33;;;;;;;20.19;66.12;100499.13;10402990;28;21043;-63
2023/08/21 03:05:31;;;;;;;5.95;3.30;;;;;;;20.17;66.13;100501.88;10393866;28;20132;-63
2023/08/21 03:10:34;;;;;;;6.82;3.25;;;;;;;20.13;65.91;100497.03;10417768;28;20410;-64
2023/08/21 03:15:36;;;;;;;6.50;3.47;;;;;;;20.10;65.91;100495.47;10389928;28;20053;-64
2023/08/21 03:20:43;;;;;;;5.28;3.30;;;;;;;20.12;66.05;100495.31;10423915;28;20041;-64
2023/08/21 03:25:45;;;;;;;5.22;3.35;;;;;;;20.10;66.02;100495.47;10393368;28;20141;-64
2023/08/21 03:30:48;;;;;;;5.60;2.97;;;;;;;20.02;65.88;100503.28;10394061;28;20241;-64
2023/08/21 03:35:55;;;;;;;8.35;3.72;;;;;;;19.95;66.16;100501.34;10383926;28;20068;-64
2023/08/21 03:40:59;;;;;;;6.22;3.30;;;;;;;19.90;66.53;100492.94;10390703;28;20047;-63
2023/08/21 03:46:01;;;;;;;7.25;3.38;;;;;;;19.96;66.30;100497.69;10399993;28;20064;-63
2023/08/21 03:51:03;;;;;;;6.82;3.10;;;;;;;20.02;66.19;100503.28;10392323;28;20114;-63
2023/08/21 03:56:05;;;;;;;5.78;3.38;;;;;;;20.04;66.07;100501.34;10398126;28;20057;-63
2023/08/21 04:01:07;;;;;;;5.38;3.10;;;;;;;20.08;66.18;100493.94;10388141;28;20071;-63
2023/08/21 04:06:09;;;;;;;5.20;3.03;;;;;;;20.09;65.99;100498.28;10395780;28;20044;-63
2023/08/21 04:11:11;;;;;;;7.10;3.63;;;;;;;20.04;66.14;100497.84;10390904;28;20702;-64
2023/08/21 04:16:14;;;;;;;6.38;3.28;;;;;;;19.97;66.01;100491.41;10387719;28;20529;-63
2023/08/21 04:21:16;;;;;;;5.30;2.80;;;;;;;19.90;66.05;100493.78;10390246;28;20051;-64
2023/08/21 04:26:18;;;;;;;8.32;3.05;;;;;;;19.84;66.01;100504.09;10398642;28;20048;-65
2023/08/21 04:31:20;;;;;;;5.78;3.17;;;;;;;19.79;66.18;100500.97;10400747;28;20045;-64
2023/08/21 04:36:24;;;;;;;6.28;3.42;;;;;;;19.80;66.37;100507.97;10397708;28;20041;-65
2023/08/21 04:41:25;;;;;;;5.20;2.92;;;;;;;19.81;66.33;100514.94;10400185;28;20041;-65
2023/08/21 04:46:28;;;;;;;6.72;3.25;;;;;;;19.90;66.12;100514.16;10427636;28;20072;-65
2023/08/21 04:51:30;;;;;;;7.45;3.28;;;;;;;19.99;65.83;100513.34;10391597;28;20063;-64
2023/08/21 04:56:35;;;;;;;5.07;3.05;;;;;;;20.13;65.59;100510.28;10434935;28;20041;-64
2023/08/21 05:01:37;;;;;;;5.38;3.00;;;;;;;20.31;65.21;100524.56;10413606;28;20425;-64
2023/08/21 05:06:39;;;;;;;8.52;3.03;;;;;;;20.42;65.28;100520.94;10433720;28;20044;-65
2023/08/21 05:11:41;;;;;;;7.35;3.03;;;;;;;20.55;64.88;100526.78;10400466;28;20497;-64
2023/08/21 05:16:45;;;;;;;6.35;3.15;;;;;;;20.74;64.50;100527.63;10409435;28;20041;-65
2023/08/21 05:21:47;;;;;;;6.72;3.30;;;;;;;21.01;63.78;100524.22;10418361;28;20049;-65
2023/08/21 05:26:52;;;;;;;5.47;3.08;;;;;;;21.18;63.65;100525.31;10398175;28;20076;-65
2023/08/21 05:31:54;;;;;;;6.18;2.80;;;;;;;21.56;63.11;100522.50;10394805;28;20557;-63
2023/08/21 05:36:57;;;;;;;4.88;3.20;;;;;;;21.75;62.64;100515.28;10424719;28;20191;-64
2023/08/21 05:42:00;;;;;;;4.88;2.90;;;;;;;22.04;62.21;100530.28;10422761;28;20567;-64
2023/08/21 05:47:02;;;;;;;4.80;2.90;;;;;;;22.08;62.09;100519.16;10422748;28;20052;-64
2023/08/21 05:52:05;;;;;;;5.47;3.08;;;;;;;22.25;61.85;100528.16;10406629;28;20530;-64
2023/08/21 05:57:07;;;;;;;7.63;2.92;;;;;;;22.54;61.14;100524.25;10396606;28;20051;-63
2023/08/21 06:02:09;;;;;;;7.25;3.13;;;;;;;22.78;61.07;100525.50;10409962;28;20413;-63
2023/08/21 06:07:11;;;;;;;4.53;2.83;;;;;;;22.91;60.53;100518.75;10409237;28;20077;-64
2023/08/21 06:12:13;;;;;;;5.57;3.38;;;;;;;22.90;60.44;100522.41;10394326;28;20049;-64
2023/08/21 06:17:17;;;;;;;5.65;3.20;;;;;;;22.67;60.95;100523.88;10404905;28;20050;-64
2023/08/21 06:22:19;;;;;;;4.90;3.33;;;;;;;22.54;61.07;100529.59;10404404;28;20498;-64
2023/08/21 06:27:21;;;;;;;5.63;3.20;;;;;;;22.52;61.27;100531.56;10407536;28;20063;-63
2023/08/21 06:32:22;;;;;;;5.80;3.42;;;;;;;22.72;60.91;100528.75;10403396;28;20541;-64
2023/08/21 06:37:25;;;;;;;5.82;3.50;;;;;;;22.93;60.58;100519.44;10390993;28;20099;-64
2023/08/21 06:42:27;;;;;;;5.40;3.03;;;;;;;22.81;61.00;100533.16;10389726;28;20112;-63
2023/08/21 06:47:30;;;;;;;6.75;3.25;;;;;;;22.87;60.76;100529.88;10413218;28;20083;-63
2023/08/21 06:52:32;;;;;;;6.60;3.60;;;;;;;23.06;60.51;100524.34;10391703;28;20285;-63
2023/08/21 06:57:34;;;;;;;5.45;3.42;;;;;;;23.19;59.94;100532.75;10391446;28;20056;-64
2023/08/21 07:02:36;;;;;;;7.45;3.65;;;;;;;23.04;59.80;100527.19;10403237;28;20786;-64
2023/08/21 07:07:38;;;;;;;6.97;3.35;;;;;;;22.88;59.97;100531.56;10394330;28;20053;-64
2023/08/21 07:12:40;;;;;;;5.97;3.13;;;;;;;23.01;59.35;100529.31;10375135;28;20044;-65
2023/08/21 07:17:42;;;;;;;7.85;3.70;;;;;;;23.21;58.87;100526.28;10400288;28;20053;-64
2023/08/21 07:22:44;;;;;;;6.55;2.90;;;;;;;23.46;58.05;100527.28;10393971;28;20071;-64
2023/08/21 07:27:46;;;;;;;6.68;3.70;;;;;;;23.26;58.31;100525.81;10392640;28;20060;-65
2023/08/21 07:32:48;;;;;;;5.50;3.10;;;;;;;23.61;57.13;100527.50;10390403;28;20043;-64
2023/08/21 07:37:50;;;;;;;5.65;2.95;;;;;;;24.17;55.98;100533.03;10390446;28;20057;-64
2023/08/21 07:42:52;;;;;;;4.60;3.00;;;;;;;25.02;54.43;100525.38;10388919;28;20045;-64
2023/08/21 07:47:54;;;;;;;6.20;3.25;;;;;;;25.72;52.49;100534.41;10391151;28;20049;-64
2023/08/21 07:53:15;;;;;;;6.38;3.10;;;;;;;25.78;52.38;100523.00;10392110;28;20386;-64
2023/08/21 07:58:17;;;;;;;4.47;2.83;;;;;;;26.15;51.77;100525.00;10389898;28;20084;-64
2023/08/21 08:03:19;;;;;;;5.97;3.50;;;;;;;25.92;52.11;100516.88;10391824;28;20068;-64
2023/08/21 08:08:21;;;;;;;6.07;3.13;;;;;;;25.93;51.96;100520.41;10388116;28;20041;-64
2023/08/21 08:13:24;;;;;;;7.07;3.20;;;;;;;26.93;50.08;100520.22;10389096;28;20049;-64
2023/08/21 08:18:26;;;;;;;5.90;3.10;;;;;;;27.89;48.39;100512.06;10390098;28;20042;-64
2023/08/21 08:23:28;;;;;;;6.25;3.30;;;;;;;28.45;47.40;100510.41;10393363;28;20049;-64
2023/08/21 08:28:30;;;;;;;4.55;2.45;;;;;;;29.21;46.21;100501.50;10400229;28;20556;-64
2023/08/21 08:33:32;;;;;;;5.07;2.85;;;;;;;29.05;45.68;100503.47;10388007;28;20054;-64
2023/08/21 08:38:34;;;;;;;5.78;3.10;;;;;;;28.83;45.69;100500.97;10388069;28;20041;-63
2023/08/21 08:43:40;;;;;;;5.22;2.90;;;;;;;29.44;44.33;100500.19;10388405;28;20037;-64
2023/08/21 08:48:42;;;;;;;4.28;2.47;;;;;;;29.87;44.02;100484.59;10399199;28;20056;-64
2023/08/21 08:53:45;;;;;;;5.63;3.05;;;;;;;29.95;43.96;100487.16;10387497;28;20041;-65
2023/08/21 08:58:47;;;;;;;4.47;2.83;;;;;;;30.29;43.03;100487.03;10383158;28;20072;-64
2023/08/21 09:03:50;;;;;;;5.05;2.70;;;;;;;30.31;42.72;100482.25;10387256;28;20041;-65
2023/08/21 09:08:57;;;;;;;5.45;3.00;;;;;;;29.91;42.44;100483.16;10386537;28;20071;-64
2023/08/21 09:13:59;;;;;;;6.28;2.75;;;;;;;30.27;42.51;100485.56;10388479;28;20571;-65
2023/08/21 09:19:01;;;;;;;10.43;2.78;;;;;;;30.36;42.84;100477.06;10393937;28;20080;-65
2023/08/21 09:24:03;;;;;;;4.90;2.85;;;;;;;30.37;42.23;100464.41;10401827;28;20033;-64
2023/08/21 09:29:06;;;;;;;6.57;3.05;;;;;;;30.78;41.52;100466.91;10393219;28;20049;-65
2023/08/21 09:34:08;;;;;;;4.55;2.97;;;;;;;30.01;41.91;100467.44;10392566;28;20138;-64
2023/08/21 09:39:17;;;;;;;4.38;2.78;;;;;;;30.29;41.50;100457.34;10393906;28;20041;-65
2023/08/21 09:44:20;;;;;;;5.25;2.67;;;;;;;30.43;41.97;100463.56;10394148;28;20406;-64
2023/08/21 09:49:22;;;;;;;4.47;2.40;;;;;;;30.41;41.63;100458.38;10396448;28;20058;-65
2023/08/21 09:54:25;;;;;;;5.22;2.72;;;;;;;30.72;41.30;100451.53;10397000;28;20417;-65
2023/08/21 09:59:45;;;;;;;6.15;2.90;;;;;;;31.09;40.88;100443.59;10390505;28;20274;-64
2023/08/21 10:04:49;;;;;;;3.85;2.28;;;;;;;31.54;40.80;100441.78;10397596;28;20045;-64
2023/08/21 10:09:51;;;;;;;4.45;2.58;;;;;;;31.87;40.15;100442.44;10393358;28;20084;-64
2023/08/21 10:14:53;;;;;;;4.72;2.70;;;;;;;31.69;40.12;100445.06;10394905;28;20049;-64
2023/08/21 10:19:55;;;;;;;8.35;2.28;;;;;;;31.08;40.23;100441.09;10392769;28;20120;-65
2023/08/21 10:24:59;;;;;;;4.85;2.30;;;;;;;31.47;40.33;100432.84;10392607;28;20045;-65
2023/08/21 10:30:12;;;;;;;4.00;2.22;;;;;;;31.89;39.41;100426.81;10390612;28;20514;-64
2023/08/21 10:35:17;;;;;;;5.43;2.30;;;;;;;32.05;38.42;100423.63;10388559;28;20045;-65
2023/08/21 10:40:23;;;;;;;4.75;2.03;;;;;;;32.32;37.78;100420.69;10404855;28;20042;-65
2023/08/21 10:45:27;;;;;;;3.70;1.85;;;;;;;32.49;37.62;100413.72;10389263;28;20045;-64
2023/08/21 10:50:29;;;;;;;2.78;1.70;;;;;;;32.56;37.60;100417.19;10392964;28;20057;-65
2023/08/21 10:55:31;;;;;;;6.00;1.90;;;;;;;32.29;37.70;100418.44;10389115;28;20045;-65
2023/08/21 11:00:34;;;;;;;2.67;1.65;;;;;;;32.12;37.82;100407.34;10391588;28;20045;-64
2023/08/21 11:05:36;;;;;;;3.08;1.70;;;;;;;31.82;38.58;100411.69;10430331;28;20053;-64
2023/08/21 11:10:38;;;;;;;3.45;1.70;;;;;;;31.92;38.49;100407.47;10394719;28;20049;-65
2023/08/21 11:15:40;;;;;;;2.67;1.55;;;;;;;31.89;38.65;100407.03;10393818;28;20494;-64
2023/08/21 11:20:42;;;;;;;4.10;1.75;;;;;;;31.66;38.13;100402.19;10391022;28;20389;-65
2023/08/21 11:25:45;;;;;;;3.17;1.77;;;;;;;31.54;37.99;100400.41;10389617;28;20060;-65
2023/08/21 11:30:46;;;;;;;5.00;1.77;;;;;;;31.17;39.09;100397.41;10390450;28;20052;-64
2023/08/21 11:35:49;;;;;;;4.57;1.70;;;;;;;31.39;38.62;100390.66;10389605;28;20049;-64
2023/08/21 11:40:52;;;;;;;3.50;1.42;;;;;;;31.71;38.04;100396.97;10386862;28;20588;-65
2023/08/21 11:45:54;;;;;;;3.30;1.80;;;;;;;31.67;38.48;100393.06;10390852;28;20402;-62
2023/08/21 11:51:01;;;;;;;3.75;1.60;;;;;;;31.69;37.77;100396.38;10388134;28;20056;-62
2023/08/21 11:56:08;;;;;;;2.38;1.30;;;;;;;31.97;37.39;100388.69;10387942;28;20050;-62
2023/08/21 12:01:15;;;;;;;2.50;1.47;;;;;;;32.08;37.64;100385.31;10388243;28;20309;-63
2023/08/21 12:06:17;;;;;;;3.10;1.60;;;;;;;32.23;37.31;100387.66;10388554;28;20091;-62
2023/08/21 12:11:20;;;;;;;2.08;1.38;;;;;;;32.30;37.40;100380.31;10388339;28;20053;-62
2023/08/21 12:16:23;;;;;;;3.42;1.30;;;;;;;32.37;37.10;100380.28;10391892;28;20514;-62
2023/08/21 12:21:25;;;;;;;3.92;1.60;;;;;;;32.03;38.00;100377.00;10394239;28;20140;-63
2023/08/21 12:26:27;;;;;;;2.45;1.38;;;;;;;32.06;37.35;100371.16;10385369;28;20052;-63
2023/08/21 12:31:41;;;;;;;3.53;1.67;;;;;;;31.94;37.83;100372.91;10386558;28;20053;-62
2023/08/21 12:36:45;;;;;;;4.63;1.50;;;;;;;31.41;38.32;100372.34;10387416;28;20053;-65
2023/08/21 12:41:48;;;;;;;2.22;1.48;;;;;;;31.34;38.38;100366.16;10381378;28;20063;-65
2023/08/21 12:46:51;;;;;;;4.53;1.50;;;;;;;31.26;38.00;100370.97;10381745;28;20041;-64
2023/08/21 12:51:54;;;;;;;2.80;1.35;;;;;;;31.18;38.03;100365.81;10395223;28;20049;-64
2023/08/21 12:56:57;;;;;;;2.45;1.30;;;;;;;31.27;38.26;100359.94;10398122;28;20416;-64
2023/08/21 13:02:03;;;;;;;2.35;1.30;;;;;;;31.33;37.99;100355.56;10396408;28;20049;-64
2023/08/21 13:07:06;;;;;;;2.33;1.27;;;;;;;31.38;37.65;100347.63;10395651;28;20045;-65
2023/08/21 13:12:08;;;;;;;2.33;1.38;;;;;;;31.44;37.53;100341.34;10394173;28;20489;-66
2023/08/21 13:17:10;;;;;;;3.30;1.50;;;;;;;31.09;37.39;100346.31;10397852;28;20048;-64
2023/08/21 13:22:12;;;;;;;2.60;1.50;;;;;;;31.18;37.83;100346.91;10426847;28;20042;-65
2023/08/21 13:27:14;;;;;;;3.00;1.58;;;;;;;31.08;38.58;100343.84;10393182;28;20042;-64
2023/08/21 13:32:16;;;;;;;2.17;1.40;;;;;;;31.28;38.73;100337.31;10394180;28;20042;-64
2023/08/21 13:37:18;;;;;;;2.22;1.30;;;;;;;31.29;38.34;100340.84;10391960;28;20422;-64
2023/08/21 13:42:21;;;;;;;3.92;1.50;;;;;;;30.90;38.71;100332.88;10407680;28;20458;-64
2023/08/21 13:47:23;;;;;;;3.92;1.58;;;;;;;30.83;39.18;100329.34;10394091;28;20048;-64
2023/08/21 13:52:25;;;;;;;3.00;1.40;;;;;;;31.07;39.04;100324.09;10392241;28;20037;-64
2023/08/21 13:57:27;;;;;;;2.83;1.50;;;;;;;31.19;39.04;100324.25;10392570;28;20057;-64
2023/08/21 14:02:29;;;;;;;3.00;1.70;;;;;;;31.67;38.52;100322.75;10391413;28;20587;-64
2023/08/21 14:07:32;;;;;;;2.47;1.67;;;;;;;31.88;38.49;100302.59;10391364;28;20482;-64
2023/08/21 14:12:34;;;;;;;3.60;1.80;;;;;;;31.68;38.53;100307.34;10394019;28;20521;-64
2023/08/21 14:17:38;;;;;;;2.88;1.55;;;;;;;31.56;38.48;100304.50;10389386;28;20049;-64
2023/08/21 14:22:40;;;;;;;4.07;1.60;;;;;;;31.54;38.72;100312.00;10397723;28;20455;-64
2023/08/21 14:27:42;;;;;;;6.20;1.65;;;;;;;31.61;38.86;100306.56;10399217;28;20727;-64
2023/08/21 14:32:44;;;;;;;2.90;1.60;;;;;;;31.75;38.92;100300.84;10405883;28;20050;-64
2023/08/21 14:37:49;;;;;;;3.80;1.83;;;;;;;31.59;38.88;100304.06;10401022;28;20072;-64
2023/08/21 14:42:52;;;;;;;2.60;1.70;;;;;;;31.36;39.16;100301.91;10403865;28;20319;-65
2023/08/21 14:47:53;;;;;;;2.70;1.60;;;;;;;31.22;39.47;100303.03;10391832;28;20048;-64
2023/08/21 14:52:55;;;;;;;3.85;1.90;;;;;;;31.24;38.87;100300.09;10392283;28;20548;-64
2023/08/21 14:57:57;;;;;;;2.58;1.60;;;;;;;31.41;39.10;100296.66;10389708;28;20409;-64
2023/08/21 15:03:00;;;;;;;3.17;1.80;;;;;;;31.05;39.05;100284.81;10389856;28;20418;-63
2023/08/21 15:08:02;;;;;;;3.40;1.70;;;;;;;31.04;39.80;100280.47;10390612;28;20354;-63
2023/08/21 15:13:04;;;;;;;6.47;2.03;;;;;;;31.13;39.68;100281.91;10394062;28;20061;-64
2023/08/21 15:18:06;;;;;;;2.83;1.83;;;;;;;30.85;39.22;100275.94;10388569;28;20053;-64
2023/08/21 15:23:08;;;;;;;3.53;1.90;;;;;;;30.86;39.98;100278.47;10388297;28;20519;-64
2023/08/21 15:28:10;;;;;;;6.50;2.05;;;;;;;30.83;40.16;100270.78;10388847;28;20042;-64
2023/08/21 15:33:12;;;;;;;6.20;2.42;;;;;;;30.78;40.55;100269.75;10388220;28;20048;-64
2023/08/21 15:38:14;;;;;;;3.47;2.10;;;;;;;30.64;40.13;100279.78;10389969;28;20072;-65
2023/08/21 15:43:16;;;;;;;6.25;2.50;;;;;;;30.64;40.49;100269.81;10388693;28;20034;-63
2023/08/21 15:48:18;;;;;;;4.72;2.17;;;;;;;30.50;40.24;100264.66;10388917;28;20052;-63
2023/08/21 15:53:20;;;;;;;3.78;2.03;;;;;;;30.40;40.71;100269.63;10392213;28;20049;-63
2023/08/21 15:58:22;;;;;;;3.35;1.90;;;;;;;30.52;40.67;100268.81;10390522;28;20526;-63
2023/08/21 16:03:24;;;;;;;2.80;1.77;;;;;;;30.46;40.89;100260.72;10386181;28;20124;-63
2023/08/21 16:08:27;;;;;;;7.40;2.10;;;;;;;30.47;40.67;100271.34;10419345;28;20468;-64
2023/08/21 16:13:30;;;;;;;3.22;2.00;;;;;;;30.42;41.07;100265.69;10387498;28;20217;-64
2023/08/21 16:18:37;;;;;;;3.47;1.90;;;;;;;30.26;40.99;100266.16;10386843;28;20081;-64
2023/08/21 16:23:39;;;;;;;3.53;2.03;;;;;;;30.26;41.22;100260.75;10384521;28;20344;-65
2023/08/21 16:28:41;;;;;;;5.40;2.35;;;;;;;30.13;41.84;100258.06;10402081;28;20524;-65
2023/08/21 16:33:43;;;;;;;4.68;3.00;;;;;;;30.09;41.78;100256.84;10385692;28;20045;-65
2023/08/21 16:38:45;;;;;;;4.47;2.90;;;;;;;29.68;42.25;100264.31;10384540;28;20056;-65
2023/08/21 16:43:47;;;;;;;5.07;2.75;;;;;;;29.63;42.55;100267.63;10387186;28;20092;-65
2023/08/21 16:48:51;;;;;;;6.15;2.63;;;;;;;29.57;42.39;100268.44;10386009;28;20788;-65
2023/08/21 16:53:53;;;;;;;5.25;2.60;;;;;;;29.57;42.49;100262.22;10417379;28;20048;-66
2023/08/21 16:58:55;;;;;;;4.38;2.90;;;;;;;29.49;42.67;100260.56;10386580;28;20077;-65
2023/08/21 17:03:57;;;;;;;4.63;2.65;;;;;;;29.45;42.84;100258.47;10386645;28;20053;-65
2023/08/21 17:08:59;;;;;;;6.70;2.85;;;;;;;29.41;42.74;100257.25;10399565;28;20144;-66
2023/08/21 17:14:01;;;;;;;7.00;2.75;;;;;;;29.15;43.25;100254.47;10386932;28;20052;-65
2023/08/21 17:19:04;;;;;;;3.58;2.50;;;;;;;28.97;43.36;100272.00;10389790;28;20409;-65
2023/08/21 17:24:06;;;;;;;4.75;2.85;;;;;;;28.90;43.96;100273.03;10386099;28;20055;-65
2023/08/21 17:29:08;;;;;;;4.63;2.55;;;;;;;28.83;44.07;100274.81;10386511;28;20304;-66
2023/08/21 17:34:10;;;;;;;6.38;2.92;;;;;;;28.55;43.75;100277.63;10387682;28;20503;-65
2023/08/21 17:39:15;;;;;;;4.32;2.58;;;;;;;28.37;44.29;100274.63;10393248;28;20064;-64
2023/08/21 17:44:17;;;;;;;5.38;2.55;;;;;;;28.30;44.46;100281.00;10431326;28;20045;-65
2023/08/21 17:49:19;;;;;;;4.55;2.50;;;;;;;28.14;45.00;100279.38;10394552;28;20140;-65
2023/08/21 17:54:32;;;;;;;3.85;2.50;;;;;;;27.91;44.82;100281.50;10396925;28;20187;-65
2023/08/21 17:59:34;;;;;;;6.82;2.72;;;;;;;27.79;44.98;100277.69;10394694;28;20033;-65
2023/08/21 18:04:36;;;;;;;4.75;2.60;;;;;;;27.75;44.89;100287.16;10399121;28;20552;-65
2023/08/21 18:09:38;;;;;;;5.68;2.67;;;;;;;27.62;45.26;100287.00;10392030;28;20049;-65
2023/08/21 18:14:40;;;;;;;4.30;2.90;;;;;;;27.40;45.50;100287.00;10378842;28;20467;-65
2023/08/21 18:19:42;;;;;;;5.00;2.45;;;;;;;27.27;45.91;100291.41;10394315;28;20163;-65
2023/08/21 18:24:48;;;;;;;5.80;2.75;;;;;;;27.10;46.22;100296.16;10392693;28;20033;-65
2023/08/21 18:29:51;;;;;;;3.85;2.47;;;;;;;26.99;46.46;100287.75;10392609;28;20060;-65
2023/08/21 18:34:54;;;;;;;5.15;2.50;;;;;;;26.89;46.35;100296.13;10386919;28;20474;-65
2023/08/21 18:39:56;;;;;;;4.53;2.58;;;;;;;26.76;46.68;100297.78;10387343;28;20401;-65
2023/08/21 18:44:58;;;;;;;6.95;2.72;;;;;;;26.54;47.28;100303.06;10385473;28;20128;-65
2023/08/21 18:50:00;;;;;;;5.75;2.72;;;;;;;26.27;48.10;100305.53;10390465;28;20044;-64
2023/08/21 18:55:03;;;;;;;4.88;2.53;;;;;;;26.01;49.03;100305.13;10388477;28;20659;-65
2023/08/21 19:00:12;;;;;;;5.40;2.60;;;;;;;25.85;49.47;100306.88;10391504;28;20451;-65
2023/08/21 19:05:14;;;;;;;5.88;2.83;;;;;;;25.65;49.68;100318.31;10388844;28;20524;-64
2023/08/21 19:10:16;;;;;;;5.80;2.85;;;;;;;25.46;49.77;100329.47;10390207;28;20049;-64
2023/08/21 19:15:18;;;;;;;6.30;3.25;;;;;;;25.40;49.74;100331.03;10389043;28;20579;-65
2023/08/21 19:20:20;;;;;;;4.60;2.80;;;;;;;25.34;49.56;100334.41;10389610;28;20056;-65
2023/08/21 19:25:22;;;;;;;4.03;2.50;;;;;;;25.22;50.13;100341.16;10388228;28;20049;-64
2023/08/21 19:30:25;;;;;;;5.55;2.55;;;;;;;25.20;50.39;100328.94;10388024;28;20045;-65
2023/08/21 19:35:30;;;;;;;5.88;3.67;;;;;;;25.00;50.81;100340.06;10387701;28;20068;-65
2023/08/21 19:40:37;;;;;;;10.98;3.33;;;;;;;24.88;51.62;100340.63;10395159;28;20045;-65
2023/08/21 19:45:41;;;;;;;6.97;3.00;;;;;;;24.53;52.19;100354.44;10388897;28;20046;-64
2023/08/21 19:50:43;;;;;;;5.88;3.00;;;;;;;24.33;52.73;100339.78;10388040;28;20390;-64
2023/08/21 19:55:52;;;;;;;7.57;3.42;;;;;;;24.23;53.48;100339.94;10387235;28;20409;-64
2023/08/21 20:00:56;;;;;;;3.92;2.70;;;;;;;24.11;53.77;100344.78;10388309;28;20042;-64
2023/08/21 20:06:06;;;;;;;4.50;2.78;;;;;;;24.09;54.43;100337.94;10387535;28;20041;-64
2023/08/21 20:11:09;;;;;;;;;;;;;;;23.88;55.23;100346.44;10387528;28;20476;-64
2023/08/21 20:16:12;;;;;;;6.63;3.35;;;;;;;23.85;54.38;100345.94;10424484;28;20391;-64
2023/08/21 20:21:16;;;;;;;17.02;4.30;;;;;;;23.67;55.22;100351.44;10388218;28;20280;-64
2023/08/21 20:26:20;;;;;;;8.30;3.88;;;;;;;23.41;55.68;100342.72;10388115;28;20238;-64
2023/08/21 20:31:25;;;;;;;8.18;2.92;;;;;;;23.42;55.89;100339.88;10389282;28;20759;-64
2023/08/21 20:36:27;;;;;;;3.90;2.60;;;;;;;23.41;55.81;100334.72;10389831;28;20085;-64
2023/08/21 20:41:29;;;;;;;7.55;3.20;;;;;;;23.37;55.81;100338.69;10386817;28;20052;-64
2023/08/21 20:46:31;;;;;;;5.80;3.00;;;;;;;23.38;55.80;100353.69;10386457;28;20509;-64
2023/08/21 20:51:33;;;;;;;5.63;2.80;;;;;;;23.30;56.17;100353.66;10396237;28;20045;-64
2023/08/21 20:56:34;;;;;;;6.82;3.30;;;;;;;22.92;56.90;100348.88;10388409;28;20057;-64
2023/08/21 21:01:36;;;;;;;6.35;2.75;;;;;;;22.85;57.11;100358.50;10388276;28;20583;-64
2023/08/21 21:06:38;;;;;;;5.70;2.90;;;;;;;22.89;57.42;100349.19;10400529;28;20414;-64
2023/08/21 21:11:40;;;;;;;8.20;3.63;;;;;;;22.82;57.21;100343.66;10427842;28;20058;-64
2023/08/21 21:16:43;;;;;;;6.60;2.95;;;;;;;22.70;57.67;100339.56;10399266;28;20052;-64
2023/08/21 21:21:45;;;;;;;6.70;2.80;;;;;;;22.66;57.77;100336.38;10405558;28;20249;-64
2023/08/21 21:26:47;;;;;;;5.47;3.33;;;;;;;22.63;57.72;100333.22;10400298;28;20206;-64
2023/08/21 21:31:49;;;;;;;6.30;3.10;;;;;;;22.49;58.20;100329.31;10394868;28;20045;-64
2023/08/21 21:36:51;;;;;;;5.03;3.13;;;;;;;22.48;58.29;100340.97;10399539;28;20421;-64
2023/08/21 21:41:53;;;;;;;4.65;2.97;;;;;;;22.45;58.45;100337.78;10406885;28;20048;-63
2023/08/21 21:46:55;;;;;;;5.78;3.28;;;;;;;22.39;58.59;100335.75;10392751;28;20053;-63
2023/08/21 21:51:57;;;;;;;8.68;3.10;;;;;;;22.36;58.89;100344.88;10397107;28;20155;-63
2023/08/21 21:56:59;;;;;;;6.28;3.08;;;;;;;22.35;58.70;100343.19;10407319;28;20054;-63
2023/08/21 22:02:01;;;;;;;7.95;3.53;;;;;;;22.27;58.88;100342.34;10397580;28;20053;-63
2023/08/21 22:07:03;;;;;;;13.20;3.80;;;;;;;22.19;59.18;100332.44;10391341;28;20472;-63
2023/08/21 22:12:06;;;;;;;5.38;3.05;;;;;;;22.14;59.30;100329.41;10388569;28;20119;-63
2023/08/21 22:17:08;;;;;;;6.70;3.10;;;;;;;22.12;59.33;100342.06;10390733;28;20549;-63
2023/08/21 22:22:10;;;;;;;6.63;3.30;;;;;;;22.00;59.58;100326.44;10395489;28;20133;-63
2023/08/21 22:27:12;;;;;;;7.68;3.53;;;;;;;21.88;60.13;100332.00;10393252;28;20046;-62
2023/08/21 22:32:16;;;;;;;5.18;3.30;;;;;;;21.92;60.05;100329.88;10395958;28;20042;-63
2023/08/21 22:37:18;;;;;;;6.43;3.10;;;;;;;21.87;60.26;100326.84;10390568;28;20099;-63
2023/08/21 22:42:20;;;;;;;9.93;3.42;;;;;;;21.80;60.26;100333.78;10390686;28;20219;-64
2023/08/21 22:47:22;;;;;;;5.65;3.20;;;;;;;21.67;60.53;100317.34;10391001;28;20046;-64
2023/08/21 22:52:28;;;;;;;6.25;3.30;;;;;;;21.61;60.56;100320.63;10409608;28;20335;-64
2023/08/21 22:57:30;;;;;;;5.63;3.40;;;;;;;21.53;60.95;100315.22;10392059;28;20057;-64
2023/08/21 23:02:32;;;;;;;6.43;3.42;;;;;;;21.46;60.84;100317.66;10392942;28;20045;-64
2023/08/21 23:07:35;;;;;;;6.03;3.42;;;;;;;21.47;60.99;100327.31;10389339;28;20136;-64
2023/08/21 23:12:37;;;;;;;5.68;3.00;;;;;;;21.42;60.96;100316.28;10391080;28;20049;-64